Time;durP1;ratioP1;P1;durP2;ratioP2;P2;SDS_P1;SDS_P2;PMS_P1;PMS_P2;Temp;Humidity;BMP_temperature;BMP_pressure;BME280_temperature;BME280_humidity;BME280_pressure;Samples;Min_cycle;Max_cycle;Signal;HPM_P1;HPM_P2
2021/11/28 00:01:22;;;;;;;83.65;34.45;;;3.20;99.90;;;;;;5015091;23;20038;-78
2021/11/28 00:03:22;;;;;;;86.50;36.65;;;3.20;99.90;;;;;;5015386;23;20376;-79
2021/11/28 00:05:25;;;;;;;75.72;36.13;;;3.20;99.90;;;;;;5011209;23;20019;-79
2021/11/28 00:11:48;;;;;;;77.38;31.42;;;3.20;99.90;;;;;;5016432;23;20439;-78
2021/11/28 00:15:55;;;;;;;97.70;38.67;;;3.20;99.90;;;;;;5017125;23;20011;-78
2021/11/28 00:17:56;;;;;;;67.05;30.55;;;3.20;99.90;;;;;;5015414;23;20066;-78
2021/11/28 00:19:56;;;;;;;77.60;30.90;;;3.20;99.90;;;;;;5014053;23;20034;-79
2021/11/28 00:21:59;;;;;;;72.40;30.95;;;3.20;99.90;;;;;;5014525;23;20093;-79
2021/11/28 00:24:00;;;;;;;71.70;30.30;;;3.20;99.90;;;;;;5014614;23;20014;-79
2021/11/28 00:26:01;;;;;;;78.57;31.88;;;3.20;99.90;;;;;;5015932;23;20017;-79
2021/11/28 00:28:02;;;;;;;79.25;32.60;;;3.20;99.90;;;;;;5016120;23;20022;-79
2021/11/28 00:30:05;;;;;;;64.38;27.50;;;3.20;99.90;;;;;;5016284;23;20023;-80
2021/11/28 00:32:06;;;;;;;67.60;28.90;;;3.20;99.90;;;;;;5015672;23;20019;-79
2021/11/28 00:34:06;;;;;;;71.55;29.83;;;3.20;99.90;;;;;;5016526;23;20026;-79
2021/11/28 00:36:07;;;;;;;68.28;28.20;;;3.20;99.90;;;;;;5013757;23;20010;-78
2021/11/28 00:38:08;;;;;;;71.05;27.13;;;3.20;99.90;;;;;;5014432;23;20015;-79
2021/11/28 00:40:09;;;;;;;74.43;31.05;;;3.20;99.90;;;;;;5013952;23;20015;-78
2021/11/28 00:42:09;;;;;;;80.53;30.58;;;3.20;99.90;;;;;;5015544;23;20458;-78
2021/11/28 00:44:10;;;;;;;75.20;30.63;;;3.10;99.90;;;;;;5013605;23;20101;-78
2021/11/28 00:46:11;;;;;;;77.13;30.65;;;3.10;99.90;;;;;;5015497;23;20043;-78
2021/11/28 00:48:12;;;;;;;71.85;30.13;;;3.10;99.90;;;;;;5013722;23;20468;-79
2021/11/28 00:52:13;;;;;;;79.10;29.13;;;3.10;99.90;;;;;;5017268;23;20015;-78
2021/11/28 00:54:14;;;;;;;82.97;31.77;;;3.10;99.90;;;;;;5015661;23;20041;-78
2021/11/28 00:56:16;;;;;;;79.38;30.88;;;3.10;99.90;;;;;;5015969;23;20445;-78
2021/11/28 00:58:17;;;;;;;75.88;29.95;;;3.10;99.90;;;;;;5015793;23;20026;-78
2021/11/28 01:00:19;;;;;;;75.88;27.75;;;3.10;99.90;;;;;;5014539;23;20451;-80
2021/11/28 01:02:21;;;;;;;75.45;28.38;;;3.10;99.90;;;;;;5014125;23;20033;-79
2021/11/28 01:04:22;;;;;;;90.13;30.17;;;3.10;99.90;;;;;;5014296;23;20554;-78
2021/11/28 01:06:22;;;;;;;74.35;30.38;;;3.10;99.90;;;;;;5013827;23;20035;-79
2021/11/28 01:08:23;;;;;;;81.03;29.38;;;3.10;99.90;;;;;;5015916;23;20364;-78
2021/11/28 01:10:24;;;;;;;86.63;30.48;;;3.10;99.90;;;;;;5015590;23;20605;-78
2021/11/28 01:12:25;;;;;;;74.38;29.90;;;3.10;99.90;;;;;;5014479;23;20396;-79
2021/11/28 01:14:26;;;;;;;82.75;29.77;;;3.10;99.90;;;;;;5013608;23;20018;-79
2021/11/28 01:16:28;;;;;;;93.53;30.10;;;3.10;99.90;;;;;;5015982;23;20311;-81
2021/11/28 01:18:32;;;;;;;85.88;30.27;;;3.10;99.90;;;;;;5013576;23;20011;-78
2021/11/28 01:20:33;;;;;;;80.78;28.20;;;3.20;99.90;;;;;;5015966;23;20015;-80
2021/11/28 01:22:34;;;;;;;80.25;29.95;;;3.20;99.90;;;;;;5015958;23;20018;-78
2021/11/28 01:24:36;;;;;;;85.97;29.67;;;3.20;99.90;;;;;;5016238;23;20682;-77
2021/11/28 01:26:37;;;;;;;74.10;28.33;;;3.30;99.90;;;;;;5013623;23;20018;-77
2021/11/28 01:28:39;;;;;;;72.88;28.52;;;3.40;99.90;;;;;;5014351;23;20015;-78
2021/11/28 01:30:40;;;;;;;77.78;29.27;;;3.40;99.90;;;;;;5016131;23;20340;-77
2021/11/28 01:32:43;;;;;;;85.60;31.55;;;3.40;99.90;;;;;;5013965;23;20014;-77
2021/11/28 01:34:43;;;;;;;71.83;29.13;;;3.30;99.90;;;;;;5015350;23;20065;-78
2021/11/28 01:36:44;;;;;;;77.60;30.25;;;3.30;99.90;;;;;;5015006;23;20014;-77
2021/11/28 01:38:45;;;;;;;72.63;28.60;;;3.40;99.90;;;;;;5012607;23;20073;-80
2021/11/28 01:40:48;;;;;;;71.63;27.40;;;3.40;99.90;;;;;;5013312;23;20491;-78
2021/11/28 01:42:52;;;;;;;76.80;29.73;;;3.50;99.90;;;;;;5012708;23;20045;-77
2021/11/28 01:44:53;;;;;;;77.80;28.58;;;3.50;99.90;;;;;;5012407;23;20062;-80
2021/11/28 01:46:55;;;;;;;74.25;28.40;;;3.50;99.90;;;;;;5011271;23;20010;-78
2021/11/28 01:48:55;;;;;;;84.07;32.10;;;3.40;99.90;;;;;;5010759;23;20026;-79
2021/11/28 01:50:56;;;;;;;74.72;28.63;;;3.30;99.90;;;;;;5014200;23;20007;-78
2021/11/28 01:52:57;;;;;;;80.88;30.20;;;3.30;99.90;;;;;;5010919;23;20050;-79
2021/11/28 01:54:57;;;;;;;81.35;30.95;;;3.30;99.90;;;;;;5014012;23;20506;-79
2021/11/28 01:56:58;;;;;;;83.45;31.88;;;3.30;99.90;;;;;;5013481;23;20090;-78
2021/11/28 01:58:59;;;;;;;78.88;30.60;;;3.30;99.90;;;;;;5012881;23;20336;-78
2021/11/28 02:01:02;;;;;;;76.28;30.77;;;3.30;99.90;;;;;;5013860;23;20637;-78
2021/11/28 02:03:03;;;;;;;;;;;3.20;99.90;;;;;;5012838;23;20062;-79
2021/11/28 02:05:04;;;;;;;73.68;28.35;;;3.20;99.90;;;;;;5013171;23;19909;-78
2021/11/28 02:07:07;;;;;;;81.32;30.13;;;3.20;99.90;;;;;;5013270;23;20452;-79
2021/11/28 02:09:07;;;;;;;78.15;31.10;;;3.20;99.90;;;;;;5013225;23;20022;-78
2021/11/28 02:11:08;;;;;;;86.43;31.08;;;3.20;99.90;;;;;;5015334;23;20013;-80
2021/11/28 02:13:10;;;;;;;85.45;30.52;;;3.20;99.90;;;;;;5012595;23;20150;-81
2021/11/28 02:15:12;;;;;;;81.70;31.85;;;3.20;99.90;;;;;;5015474;23;20320;-79
2021/11/28 02:17:12;;;;;;;87.32;30.60;;;3.20;99.90;;;;;;5015342;23;20025;-80
2021/11/28 02:19:13;;;;;;;83.07;31.70;;;3.20;99.90;;;;;;5011260;23;20026;-79
2021/11/28 02:21:14;;;;;;;88.50;33.63;;;3.20;99.90;;;;;;5014835;23;20066;-78
2021/11/28 02:23:15;;;;;;;76.88;30.33;;;3.20;99.90;;;;;;5014190;23;20011;-79
2021/11/28 02:25:15;;;;;;;69.60;29.52;;;3.20;99.90;;;;;;5013770;23;20179;-79
2021/11/28 02:27:16;;;;;;;67.18;29.25;;;3.30;99.90;;;;;;5014178;23;20113;-79
2021/11/28 02:29:17;;;;;;;72.00;29.52;;;3.30;99.90;;;;;;5014788;23;20408;-79
2021/11/28 02:31:18;;;;;;;68.32;28.67;;;3.20;99.90;;;;;;5014399;23;20026;-79
2021/11/28 02:33:18;;;;;;;75.93;29.70;;;3.20;99.90;;;;;;5014066;23;20539;-77
2021/11/28 02:35:20;;;;;;;82.53;31.42;;;3.20;99.90;;;;;;5014013;23;20015;-79
2021/11/28 02:37:22;;;;;;;95.28;33.08;;;3.20;99.90;;;;;;5014405;23;20045;-79
2021/11/28 02:39:22;;;;;;;87.60;31.00;;;3.20;99.90;;;;;;5012978;23;20017;-79
2021/11/28 02:41:23;;;;;;;85.00;32.95;;;3.30;99.90;;;;;;5014854;23;20105;-80
2021/11/28 02:43:25;;;;;;;86.93;33.45;;;3.20;99.90;;;;;;5015061;23;20030;-79
2021/11/28 02:45:28;;;;;;;93.75;36.42;;;3.20;99.90;;;;;;5014295;23;20045;-79
2021/11/28 02:47:29;;;;;;;93.63;35.47;;;3.30;99.90;;;;;;5015010;23;20007;-79
2021/11/28 02:49:30;;;;;;;87.97;35.22;;;3.30;99.90;;;;;;5015387;23;20090;-78
2021/11/28 02:51:34;;;;;;;94.80;34.40;;;3.30;99.90;;;;;;5012847;23;20015;-79
2021/11/28 02:53:35;;;;;;;86.13;33.55;;;3.30;99.90;;;;;;5013949;23;20097;-79
2021/11/28 02:55:45;;;;;;;97.00;34.25;;;3.20;99.90;;;;;;5013247;23;20010;-78
2021/11/28 02:57:46;;;;;;;87.60;34.78;;;3.30;99.90;;;;;;5015329;23;20021;-79
2021/11/28 02:59:46;;;;;;;91.35;34.25;;;3.30;99.90;;;;;;5013451;23;20042;-79
2021/11/28 03:01:47;;;;;;;99.35;35.55;;;3.30;99.90;;;;;;5014155;23;20038;-78
2021/11/28 03:03:50;;;;;;;94.60;34.88;;;3.30;99.90;;;;;;5013918;23;20042;-78
2021/11/28 03:05:51;;;;;;;84.20;34.58;;;3.30;99.90;;;;;;5014459;23;20011;-79
2021/11/28 03:07:52;;;;;;;92.03;34.55;;;3.30;99.90;;;;;;5013980;23;20042;-78
2021/11/28 03:09:52;;;;;;;90.55;34.72;;;3.30;99.90;;;;;;5014294;23;20058;-78
2021/11/28 03:11:53;;;;;;;83.88;30.98;;;3.30;99.90;;;;;;5013610;23;20019;-78
2021/11/28 03:13:54;;;;;;;98.32;34.58;;;3.30;99.90;;;;;;5012108;23;20046;-78
2021/11/28 03:15:58;;;;;;;96.85;36.63;;;3.30;99.90;;;;;;5014129;23;20015;-79
2021/11/28 03:18:00;;;;;;;90.93;36.15;;;3.40;99.90;;;;;;5012599;23;20066;-78
2021/11/28 03:20:00;;;;;;;94.65;35.47;;;3.30;99.90;;;;;;5013132;23;20509;-78
2021/11/28 03:22:01;;;;;;;94.30;36.10;;;3.40;99.90;;;;;;5014539;23;20019;-78
2021/11/28 03:24:05;;;;;;;94.78;36.47;;;3.40;99.90;;;;;;5013610;23;20033;-78
2021/11/28 03:26:10;;;;;;;100.30;35.50;;;3.40;99.90;;;;;;5012649;23;20074;-78
2021/11/28 03:28:16;;;;;;;87.38;35.03;;;3.40;99.90;;;;;;5015084;23;20407;-78
2021/11/28 03:30:18;;;;;;;94.25;36.80;;;3.40;99.90;;;;;;5014727;23;20019;-78
2021/11/28 03:32:18;;;;;;;87.30;33.85;;;3.50;99.90;;;;;;5013347;23;20025;-79
2021/11/28 03:34:20;;;;;;;92.45;38.17;;;3.50;99.90;;;;;;5014532;23;20023;-79
2021/11/28 03:36:24;;;;;;;96.72;36.15;;;3.40;99.90;;;;;;5014914;23;20019;-80
2021/11/28 03:38:25;;;;;;;95.47;35.65;;;3.40;99.90;;;;;;5014346;23;20015;-79
2021/11/28 03:40:26;;;;;;;89.47;35.70;;;3.50;99.90;;;;;;5013725;23;20058;-78
2021/11/28 03:42:27;;;;;;;86.95;33.50;;;3.50;99.90;;;;;;5010873;23;20098;-77
2021/11/28 03:44:29;;;;;;;94.05;39.30;;;3.50;99.90;;;;;;5012587;23;20332;-80
2021/11/28 03:46:30;;;;;;;96.30;36.42;;;3.50;99.90;;;;;;5011064;23;20439;-79
2021/11/28 03:48:31;;;;;;;92.88;36.45;;;3.40;99.90;;;;;;5011665;23;20022;-78
2021/11/28 03:50:32;;;;;;;84.88;33.92;;;3.40;99.90;;;;;;5012850;23;20418;-78
2021/11/28 03:52:34;;;;;;;96.32;35.35;;;3.40;99.90;;;;;;5011123;23;20018;-78
2021/11/28 03:54:35;;;;;;;103.78;37.40;;;3.40;99.90;;;;;;5013088;23;20015;-79
2021/11/28 03:56:36;;;;;;;86.43;35.72;;;3.40;99.90;;;;;;5010919;23;20011;-80
2021/11/28 03:58:38;;;;;;;90.53;35.15;;;3.40;99.90;;;;;;5012312;23;20078;-78
2021/11/28 04:00:38;;;;;;;86.95;35.58;;;3.30;99.90;;;;;;5011804;23;20018;-79
2021/11/28 04:02:40;;;;;;;90.97;35.17;;;3.40;99.90;;;;;;5013424;23;20011;-80
2021/11/28 04:04:40;;;;;;;82.63;34.30;;;3.30;99.90;;;;;;5014336;23;20018;-78
2021/11/28 04:06:41;;;;;;;102.78;37.55;;;3.40;99.90;;;;;;5015028;23;20022;-78
2021/11/28 04:08:42;;;;;;;105.57;35.28;;;3.40;99.90;;;;;;5013093;23;20086;-78
2021/11/28 04:10:43;;;;;;;99.45;37.03;;;3.40;99.90;;;;;;5014381;23;20019;-78
2021/11/28 04:12:44;;;;;;;92.63;35.22;;;3.40;99.90;;;;;;5012861;23;20041;-78
2021/11/28 04:14:45;;;;;;;101.45;35.40;;;3.40;99.90;;;;;;5014958;23;20090;-79
2021/11/28 04:16:46;;;;;;;96.97;36.38;;;3.40;99.90;;;;;;5014333;23;20018;-79
2021/11/28 04:18:47;;;;;;;93.47;33.65;;;3.30;99.90;;;;;;5014979;23;20014;-79
2021/11/28 04:20:47;;;;;;;99.82;36.55;;;3.30;99.90;;;;;;5014410;23;20162;-80
2021/11/28 04:22:48;;;;;;;99.90;36.72;;;3.30;99.90;;;;;;5013566;23;20010;-80
2021/11/28 04:24:49;;;;;;;94.85;35.63;;;3.30;99.90;;;;;;5014167;23;20019;-79
2021/11/28 04:26:50;;;;;;;90.70;33.65;;;3.30;99.90;;;;;;5014905;23;20015;-79
2021/11/28 04:28:50;;;;;;;94.57;35.22;;;3.40;99.90;;;;;;5015402;23;20340;-79
2021/11/28 04:30:51;;;;;;;106.63;38.60;;;3.30;99.90;;;;;;5014137;23;20007;-79
2021/11/28 04:32:53;;;;;;;103.88;35.92;;;3.40;99.90;;;;;;5015483;23;20007;-78
2021/11/28 04:34:54;;;;;;;98.38;33.33;;;3.30;99.90;;;;;;5013454;23;20025;-79
2021/11/28 04:36:54;;;;;;;108.32;37.90;;;3.30;99.90;;;;;;5013345;23;20015;-79
2021/11/28 04:38:55;;;;;;;98.32;36.60;;;3.40;99.90;;;;;;5015723;23;20566;-79
2021/11/28 04:40:56;;;;;;;98.45;34.08;;;3.40;99.90;;;;;;5013435;23;20843;-80
2021/11/28 04:42:56;;;;;;;97.45;36.17;;;3.30;99.90;;;;;;5013546;23;20820;-79
2021/11/28 04:44:57;;;;;;;97.07;36.05;;;3.30;99.90;;;;;;5013869;23;20124;-78
2021/11/28 04:46:58;;;;;;;100.72;36.55;;;3.30;99.90;;;;;;5013692;23;20090;-78
2021/11/28 04:49:02;;;;;;;101.40;38.83;;;3.30;99.90;;;;;;5013427;23;20025;-78
2021/11/28 04:51:03;;;;;;;106.45;39.03;;;3.30;99.90;;;;;;5015153;23;20240;-79
2021/11/28 04:53:03;;;;;;;109.50;36.50;;;3.20;99.90;;;;;;5013582;23;20007;-78
2021/11/28 04:55:06;;;;;;;110.88;38.50;;;3.20;99.90;;;;;;5015696;23;20034;-78
2021/11/28 04:57:07;;;;;;;111.90;38.25;;;3.20;99.90;;;;;;5013880;23;20015;-78
2021/11/28 04:59:08;;;;;;;98.45;38.38;;;3.20;99.90;;;;;;5014995;23;20082;-79
2021/11/28 05:01:09;;;;;;;113.88;39.25;;;3.20;99.90;;;;;;5016005;23;20077;-78
2021/11/28 05:03:10;;;;;;;107.65;35.63;;;3.10;99.90;;;;;;4989779;23;20018;-79
2021/11/28 05:05:10;;;;;;;100.32;37.80;;;3.00;99.90;;;;;;5013925;23;20022;-77
2021/11/28 05:07:11;;;;;;;103.20;35.95;;;3.00;99.90;;;;;;5015524;23;20013;-79
2021/11/28 05:09:12;;;;;;;111.15;38.13;;;2.90;99.90;;;;;;5016106;23;20074;-78
2021/11/28 05:11:13;;;;;;;117.97;39.17;;;2.80;99.90;;;;;;5013561;23;20435;-79
2021/11/28 05:13:13;;;;;;;119.13;38.78;;;2.80;99.90;;;;;;5014298;23;20419;-78
2021/11/28 05:15:14;;;;;;;122.40;38.70;;;2.80;99.90;;;;;;5013419;23;20017;-78
2021/11/28 05:17:15;;;;;;;108.97;37.42;;;2.80;99.90;;;;;;5016478;23;20050;-78
2021/11/28 05:19:16;;;;;;;111.75;41.00;;;2.80;99.90;;;;;;5013738;23;20106;-78
2021/11/28 05:21:16;;;;;;;120.50;38.17;;;2.70;99.90;;;;;;5016141;23;20086;-78
2021/11/28 05:23:17;;;;;;;119.28;40.90;;;2.70;99.90;;;;;;5014040;23;20542;-80
2021/11/28 05:25:19;;;;;;;113.47;39.67;;;2.70;99.90;;;;;;5015939;23;20023;-79
2021/11/28 05:27:20;;;;;;;119.28;41.20;;;2.70;99.90;;;;;;5015576;23;20073;-77
2021/11/28 05:29:21;;;;;;;128.13;39.13;;;2.70;99.90;;;;;;5016033;23;20435;-78
2021/11/28 05:31:21;;;;;;;135.25;39.70;;;2.60;99.90;;;;;;5014172;23;20082;-80
2021/11/28 05:33:22;;;;;;;126.78;40.15;;;2.60;99.90;;;;;;5015677;23;20018;-80
2021/11/28 05:35:23;;;;;;;119.95;38.20;;;2.60;99.90;;;;;;5015882;23;20448;-79
2021/11/28 05:37:24;;;;;;;122.43;41.63;;;2.70;99.90;;;;;;5014337;23;20022;-77
2021/11/28 05:39:24;;;;;;;116.72;40.90;;;2.70;99.90;;;;;;5013917;23;20011;-78
2021/11/28 05:41:25;;;;;;;157.02;42.47;;;2.70;99.90;;;;;;5013305;23;20145;-78
2021/11/28 05:43:26;;;;;;;131.30;40.17;;;2.60;99.90;;;;;;5013968;23;20026;-78
2021/11/28 05:45:27;;;;;;;113.90;38.88;;;2.50;99.90;;;;;;5013927;23;20363;-78
2021/11/28 05:47:28;;;;;;;119.40;39.08;;;2.40;99.90;;;;;;5014988;23;20018;-78
2021/11/28 05:49:30;;;;;;;112.65;38.22;;;2.30;99.90;;;;;;5014386;23;20055;-78
2021/11/28 05:51:30;;;;;;;134.88;39.45;;;2.30;99.90;;;;;;5012908;23;20023;-78
2021/11/28 05:53:32;;;;;;;121.63;37.80;;;2.10;99.90;;;;;;5015368;23;20093;-79
2021/11/28 05:55:32;;;;;;;142.55;39.08;;;2.00;99.90;;;;;;5013449;23;20018;-78
2021/11/28 05:57:34;;;;;;;135.27;37.97;;;2.00;99.90;;;;;;5013793;23;20066;-78
2021/11/28 05:59:34;;;;;;;126.60;38.95;;;2.00;99.90;;;;;;5015543;23;20515;-78
2021/11/28 06:01:35;;;;;;;141.48;40.78;;;2.00;99.90;;;;;;5015211;23;20019;-78
2021/11/28 06:03:36;;;;;;;155.57;44.15;;;2.10;99.90;;;;;;5014223;23;20045;-77
2021/11/28 06:05:42;;;;;;;146.73;42.30;;;2.10;99.90;;;;;;5013600;23;20364;-79
2021/11/28 06:07:42;;;;;;;143.57;40.40;;;2.20;99.90;;;;;;5015665;23;20038;-78
2021/11/28 06:09:43;;;;;;;190.70;47.05;;;2.30;99.90;;;;;;5013234;23;20041;-78
2021/11/28 06:11:44;;;;;;;173.35;47.53;;;2.30;99.90;;;;;;5015222;23;20340;-78
2021/11/28 06:13:44;;;;;;;186.00;49.42;;;2.30;99.90;;;;;;5014993;23;20052;-78
2021/11/28 06:15:45;;;;;;;209.13;51.80;;;2.30;99.90;;;;;;5015788;23;20033;-78
2021/11/28 06:17:45;;;;;;;238.25;53.25;;;2.30;99.90;;;;;;5014900;23;20320;-78
2021/11/28 06:19:46;;;;;;;224.63;54.45;;;2.40;99.90;;;;;;5015479;23;20085;-78
2021/11/28 06:21:47;;;;;;;316.95;56.70;;;2.40;99.90;;;;;;5015106;23;20039;-78
2021/11/28 06:23:48;;;;;;;278.05;60.50;;;2.40;99.90;;;;;;5013759;23;20351;-79
2021/11/28 06:25:50;;;;;;;375.48;65.05;;;2.50;99.90;;;;;;5015207;23;20026;-78
2021/11/28 06:27:50;;;;;;;572.95;83.07;;;2.60;99.90;;;;;;5015765;23;20027;-78
2021/11/28 06:29:52;;;;;;;554.78;82.28;;;2.60;99.90;;;;;;5013641;23;20030;-78
2021/11/28 06:31:52;;;;;;;689.47;92.65;;;2.60;99.90;;;;;;5015666;23;20383;-78
2021/11/28 06:33:53;;;;;;;685.90;97.30;;;2.60;99.90;;;;;;5013640;23;20063;-80
2021/11/28 06:35:54;;;;;;;694.78;100.22;;;2.60;99.90;;;;;;5014962;23;20010;-79
2021/11/28 06:37:55;;;;;;;765.85;104.75;;;2.60;99.90;;;;;;5015506;23;20017;-78
2021/11/28 06:39:57;;;;;;;757.83;102.65;;;2.60;99.90;;;;;;5015489;23;20102;-79
2021/11/28 06:41:58;;;;;;;658.15;90.43;;;2.60;99.90;;;;;;5015151;23;20059;-77
2021/11/28 06:43:58;;;;;;;607.72;81.80;;;2.70;99.90;;;;;;5013503;23;20034;-79
2021/11/28 06:46:01;;;;;;;725.05;90.90;;;2.70;99.90;;;;;;5015625;23;20018;-79
2021/11/28 06:48:03;;;;;;;574.22;72.63;;;2.70;99.90;;;;;;5013931;23;20015;-78
2021/11/28 06:50:04;;;;;;;813.17;96.65;;;2.70;99.90;;;;;;5013614;23;20046;-79
2021/11/28 06:52:05;;;;;;;815.22;100.65;;;2.70;99.90;;;;;;5014507;23;20321;-79
2021/11/28 06:54:06;;;;;;;762.20;93.05;;;2.60;99.90;;;;;;5013021;23;20456;-79
2021/11/28 06:56:08;;;;;;;763.63;95.15;;;2.60;99.90;;;;;;5014905;23;20050;-79
2021/11/28 06:58:09;;;;;;;831.92;98.25;;;2.50;99.90;;;;;;5015562;23;20452;-78
2021/11/28 07:00:10;;;;;;;682.38;86.38;;;2.50;99.90;;;;;;5012960;23;20065;-79
2021/11/28 07:02:11;;;;;;;893.47;108.18;;;2.50;99.90;;;;;;5015502;23;20015;-79
2021/11/28 07:04:12;;;;;;;764.10;94.38;;;2.50;99.90;;;;;;5013239;23;20014;-79
2021/11/28 07:06:13;;;;;;;754.15;96.70;;;2.40;99.90;;;;;;5013702;23;20018;-78
2021/11/28 07:08:15;;;;;;;704.97;83.75;;;2.40;99.90;;;;;;5014689;23;20011;-78
2021/11/28 07:10:16;;;;;;;770.53;93.10;;;2.30;99.90;;;;;;5012618;23;20055;-78
2021/11/28 07:12:16;;;;;;;921.28;107.18;;;2.30;99.90;;;;;;5014828;23;20042;-79
2021/11/28 07:14:17;;;;;;;668.67;79.22;;;2.20;99.90;;;;;;5015033;23;20015;-78
2021/11/28 07:16:19;;;;;;;764.45;96.35;;;2.20;99.90;;;;;;5014572;23;20046;-78
2021/11/28 07:18:20;;;;;;;835.50;100.15;;;2.10;99.90;;;;;;5015351;23;20038;-78
2021/11/28 07:20:21;;;;;;;938.42;108.82;;;2.10;99.90;;;;;;5015022;23;20026;-79
2021/11/28 07:22:21;;;;;;;813.70;95.25;;;2.10;99.90;;;;;;5013786;23;20470;-78
2021/11/28 07:24:22;;;;;;;765.83;92.28;;;2.00;99.90;;;;;;5015324;23;20021;-78
2021/11/28 07:26:23;;;;;;;729.58;84.50;;;2.00;99.90;;;;;;5012896;23;20011;-78
2021/11/28 07:28:23;;;;;;;619.90;76.68;;;2.00;99.90;;;;;;5013279;23;20022;-78
2021/11/28 07:30:25;;;;;;;818.33;94.88;;;2.00;99.90;;;;;;5012675;23;20418;-78
2021/11/28 07:32:26;;;;;;;557.70;70.45;;;2.00;99.90;;;;;;5013408;23;20011;-78
2021/11/28 07:34:26;;;;;;;643.38;78.75;;;2.00;99.90;;;;;;5015325;23;20458;-77
2021/11/28 07:36:27;;;;;;;689.47;86.55;;;1.90;99.90;;;;;;5015874;23;20015;-78
2021/11/28 07:38:28;;;;;;;659.70;76.05;;;1.90;99.90;;;;;;5014837;23;20312;-78
2021/11/28 07:40:28;;;;;;;786.53;86.43;;;1.90;99.90;;;;;;5015778;23;20013;-79
2021/11/28 07:42:29;;;;;;;593.25;70.18;;;1.80;99.90;;;;;;5013583;23;20019;-78
2021/11/28 07:44:29;;;;;;;702.28;79.93;;;1.80;99.90;;;;;;5011447;23;20015;-78
2021/11/28 07:46:30;;;;;;;820.20;94.00;;;1.80;99.90;;;;;;5010655;23;20078;-79
2021/11/28 07:48:31;;;;;;;701.47;85.18;;;1.80;99.90;;;;;;5012487;23;20015;-78
2021/11/28 07:50:31;;;;;;;527.10;60.67;;;1.80;99.90;;;;;;5012947;23;20019;-78
2021/11/28 07:52:32;;;;;;;813.10;94.30;;;1.80;99.90;;;;;;5012106;23;20011;-77
2021/11/28 07:54:34;;;;;;;517.45;60.10;;;1.80;99.90;;;;;;5011551;23;20026;-78
2021/11/28 07:56:35;;;;;;;480.92;62.03;;;1.90;99.90;;;;;;5011558;23;20679;-79
2021/11/28 07:58:35;;;;;;;529.70;68.13;;;1.90;99.90;;;;;;5013167;23;20085;-78
2021/11/28 08:00:37;;;;;;;485.48;62.55;;;1.90;99.90;;;;;;5012420;23;20017;-78
2021/11/28 08:02:37;;;;;;;445.88;57.15;;;1.80;99.90;;;;;;5014542;23;20018;-80
2021/11/28 08:04:38;;;;;;;583.90;73.35;;;1.80;99.90;;;;;;5013695;23;20343;-80
2021/11/28 08:06:38;;;;;;;572.05;73.30;;;1.80;99.90;;;;;;5015875;23;20328;-79
2021/11/28 08:08:39;;;;;;;389.23;50.10;;;1.80;99.90;;;;;;5014452;23;20014;-79
2021/11/28 08:10:40;;;;;;;362.25;50.55;;;1.70;99.90;;;;;;5014174;23;20348;-79
2021/11/28 08:12:40;;;;;;;454.90;57.33;;;1.80;99.90;;;;;;5013967;23;20019;-79
2021/11/28 08:14:41;;;;;;;467.90;60.20;;;1.70;99.90;;;;;;5015996;23;20007;-79
2021/11/28 08:16:42;;;;;;;388.90;55.60;;;1.80;99.90;;;;;;5015373;23;20017;-80
2021/11/28 08:18:43;;;;;;;295.25;46.78;;;1.80;99.90;;;;;;5016223;23;20014;-79
2021/11/28 08:20:44;;;;;;;463.83;66.20;;;1.70;99.90;;;;;;5016062;23;20089;-79
2021/11/28 08:22:45;;;;;;;421.42;61.25;;;1.80;99.90;;;;;;5014504;23;20126;-79
2021/11/28 08:24:46;;;;;;;442.92;62.60;;;1.80;99.90;;;;;;5014261;23;20093;-79
2021/11/28 08:26:46;;;;;;;650.40;83.38;;;1.90;99.90;;;;;;5015593;23;20042;-80
2021/11/28 08:28:47;;;;;;;392.48;58.35;;;1.90;99.90;;;;;;5014081;23;20420;-79
2021/11/28 08:30:48;;;;;;;435.17;63.72;;;2.00;99.90;;;;;;5015729;23;20134;-79
2021/11/28 08:32:49;;;;;;;264.52;44.83;;;2.00;99.90;;;;;;5013687;23;20010;-78
2021/11/28 08:34:51;;;;;;;376.35;57.65;;;2.20;99.90;;;;;;5013948;23;20067;-79
2021/11/28 08:36:51;;;;;;;359.08;55.85;;;2.30;99.90;;;;;;5015183;23;20019;-79
2021/11/28 08:38:54;;;;;;;312.92;52.47;;;2.40;99.90;;;;;;5015570;23;20046;-79
2021/11/28 08:40:55;;;;;;;337.80;57.17;;;2.40;99.90;;;;;;5015043;23;20018;-78
2021/11/28 08:42:56;;;;;;;240.45;48.95;;;2.50;99.90;;;;;;5016104;23;20041;-79
2021/11/28 08:44:57;;;;;;;215.85;45.10;;;2.50;99.90;;;;;;5014766;23;20466;-79
2021/11/28 08:46:58;;;;;;;151.32;39.33;;;2.60;99.90;;;;;;5015156;23;20018;-79
2021/11/28 08:48:59;;;;;;;133.90;37.55;;;2.60;99.90;;;;;;5013951;23;20403;-80
2021/11/28 08:51:02;;;;;;;294.85;51.88;;;2.80;99.90;;;;;;5014209;23;20010;-80
2021/11/28 08:53:03;;;;;;;335.92;55.80;;;3.00;99.90;;;;;;5013349;23;20031;-79
2021/11/28 08:55:05;;;;;;;516.10;74.05;;;3.10;99.90;;;;;;5014327;23;20023;-79
2021/11/28 08:57:06;;;;;;;274.47;53.07;;;3.30;99.90;;;;;;5014374;23;20043;-79
2021/11/28 08:59:07;;;;;;;161.35;41.97;;;3.40;99.90;;;;;;4990804;23;20868;-78
2021/11/28 09:01:07;;;;;;;131.63;42.33;;;3.50;99.90;;;;;;5016488;23;20030;-80
2021/11/28 09:03:08;;;;;;;155.60;41.67;;;3.70;99.90;;;;;;5015870;23;20047;-79
2021/11/28 09:05:09;;;;;;;112.45;37.63;;;3.80;99.90;;;;;;5016386;23;20451;-78
2021/11/28 09:07:09;;;;;;;124.82;41.88;;;4.00;99.90;;;;;;5013155;23;20018;-78
2021/11/28 09:09:10;;;;;;;103.65;41.50;;;4.20;99.90;;;;;;5014903;23;20007;-80
2021/11/28 09:11:12;;;;;;;86.13;36.90;;;4.40;99.90;;;;;;5012590;23;20015;-80
2021/11/28 09:13:13;;;;;;;75.22;33.47;;;4.60;99.90;;;;;;5013366;23;20026;-79
2021/11/28 09:15:16;;;;;;;81.45;35.90;;;4.80;99.90;;;;;;5013047;23;20018;-80
2021/11/28 09:17:18;;;;;;;70.18;37.38;;;5.00;99.90;;;;;;5015323;23;20015;-79
2021/11/28 09:19:24;;;;;;;70.50;34.47;;;5.30;99.90;;;;;;5014776;23;20081;-79
2021/11/28 09:21:25;;;;;;;68.30;31.70;;;5.60;99.90;;;;;;5013416;23;20066;-78
2021/11/28 09:25:44;;;;;;;50.47;27.58;;;5.70;99.90;;;;;;5015731;23;20018;-79
2021/11/28 09:27:48;;;;;;;46.35;26.90;;;5.80;99.90;;;;;;5015742;23;20011;-78
2021/11/28 09:29:49;;;;;;;;;;;5.80;99.90;;;;;;5016695;23;20026;-77
2021/11/28 09:31:50;;;;;;;42.75;26.63;;;5.80;99.90;;;;;;5016346;23;19915;-78
2021/11/28 09:33:51;;;;;;;39.78;25.65;;;5.70;99.90;;;;;;5015543;23;20347;-78
2021/11/28 09:35:51;;;;;;;40.45;24.90;;;5.70;99.90;;;;;;5014424;23;20788;-78
2021/11/28 09:37:53;;;;;;;36.80;23.35;;;5.50;99.90;;;;;;5016085;23;20046;-78
2021/11/28 09:39:54;;;;;;;37.83;24.33;;;5.30;99.90;;;;;;5015142;23;20015;-78
2021/11/28 09:41:59;;;;;;;37.20;22.50;;;5.30;99.90;;;;;;5015213;23;20296;-79
2021/11/28 09:44:09;;;;;;;39.47;25.13;;;5.20;99.90;;;;;;5013693;23;20011;-78
2021/11/28 09:46:10;;;;;;;36.70;23.10;;;5.10;99.90;;;;;;5014942;23;20006;-78
2021/11/28 09:48:11;;;;;;;37.92;23.33;;;5.00;99.90;;;;;;5013480;23;20015;-80
2021/11/28 09:50:12;;;;;;;36.55;23.83;;;4.90;99.90;;;;;;5013274;23;20029;-78
2021/11/28 09:52:19;;;;;;;38.30;23.92;;;4.80;99.90;;;;;;5015109;23;20038;-78
2021/11/28 09:54:20;;;;;;;40.78;25.20;;;4.70;99.90;;;;;;5013627;23;20011;-79
2021/11/28 09:56:23;;;;;;;39.45;26.13;;;4.70;99.90;;;;;;5014076;23;20516;-79
2021/11/28 09:58:25;;;;;;;41.13;24.92;;;4.50;99.90;;;;;;5013319;23;20347;-78
2021/11/28 10:00:26;;;;;;;43.78;25.38;;;4.50;99.90;;;;;;5013283;23;20145;-77
2021/11/28 10:02:29;;;;;;;40.38;25.00;;;4.50;99.90;;;;;;5013812;23;20356;-81
2021/11/28 10:04:30;;;;;;;40.90;25.10;;;4.40;99.90;;;;;;5015134;23;20348;-78
2021/11/28 10:06:31;;;;;;;39.25;24.88;;;4.40;99.90;;;;;;5013419;23;20081;-78
2021/11/28 10:08:32;;;;;;;39.28;24.13;;;4.40;99.90;;;;;;5011449;23;20014;-79
2021/11/28 10:10:34;;;;;;;38.72;22.08;;;4.50;99.90;;;;;;5011085;23;20014;-79
2021/11/28 10:12:42;;;;;;;38.47;24.95;;;4.70;99.90;;;;;;5012489;23;20017;-79
2021/11/28 10:14:48;;;;;;;38.63;24.40;;;4.80;99.90;;;;;;5012288;23;20101;-80
2021/11/28 10:16:50;;;;;;;37.42;23.65;;;4.90;99.90;;;;;;5015566;23;20014;-79
2021/11/28 10:18:51;;;;;;;43.08;26.20;;;4.90;99.90;;;;;;5013341;23;20024;-78
2021/11/28 10:20:53;;;;;;;38.40;24.17;;;4.80;99.90;;;;;;5013678;23;20118;-79
2021/11/28 10:22:54;;;;;;;41.53;24.27;;;4.80;99.90;;;;;;5014309;23;20034;-79
2021/11/28 10:25:04;;;;;;;38.67;24.85;;;4.70;99.90;;;;;;5015582;23;20033;-79
2021/11/28 10:27:09;;;;;;;49.83;24.20;;;4.60;99.90;;;;;;5014846;23;20031;-79
2021/11/28 10:29:13;;;;;;;45.58;25.13;;;4.50;99.90;;;;;;4989529;23;20402;-78
2021/11/28 10:31:22;;;;;;;40.63;22.25;;;4.60;99.90;;;;;;5015915;23;20090;-78